createdAt,value
2023-03-13T00:01:47.282Z,60.86
2023-03-13T00:04:16.413Z,66.47
2023-03-13T00:06:45.431Z,65.29
2023-03-13T00:09:16.712Z,58.16
2023-03-13T00:11:46.256Z,55.81
2023-03-13T00:14:14.184Z,58.43
2023-03-13T00:16:42.682Z,58.98
2023-03-13T00:19:11.098Z,60.67
2023-03-13T00:21:44.186Z,61.25
2023-03-13T00:24:12.582Z,66.56
2023-03-13T00:26:40.928Z,65.67
2023-03-13T00:29:09.221Z,61.64
2023-03-13T00:31:37.843Z,58.33
2023-03-13T00:34:05.657Z,52.76
2023-03-13T00:36:35.938Z,54.55
2023-03-13T00:39:07.481Z,57.36
2023-03-13T00:41:38.227Z,60.09
2023-03-13T00:44:07.030Z,62.34
2023-03-13T00:46:35.807Z,66.91
2023-03-13T00:49:04.830Z,67.81
2023-03-13T00:51:35.726Z,61.78
2023-03-13T00:54:07.841Z,55.04
2023-03-13T00:56:37.477Z,52.42
2023-03-13T00:59:05.850Z,55.15
2023-03-13T01:01:38.038Z,57.32
2023-03-13T01:04:12.144Z,60.98
2023-03-13T01:06:45.015Z,67.55
2023-03-13T01:09:19.104Z,70.90
2023-03-13T01:11:47.183Z,63.00
2023-03-13T01:14:19.658Z,54.14
2023-03-13T01:16:50.879Z,52.77
2023-03-13T01:19:19.084Z,54.49
2023-03-13T01:21:47.368Z,55.45
2023-03-13T01:24:15.207Z,56.34
2023-03-13T01:26:43.050Z,58.44
2023-03-13T01:29:12.862Z,60.59
2023-03-13T01:31:42.575Z,65.75
2023-03-13T01:34:14.694Z,72.01
2023-03-13T01:36:43.856Z,64.62
2023-03-13T01:39:11.833Z,56.94
2023-03-13T01:41:41.121Z,53.18
2023-03-13T01:44:26.924Z,54.31
2023-03-13T01:46:57.148Z,57.05
2023-03-13T01:49:34.636Z,59.72
2023-03-13T01:52:31.998Z,63.07
2023-03-13T01:55:11.899Z,65.76
2023-03-13T01:57:51.900Z,64.67
2023-03-13T02:00:26.505Z,56.81
2023-03-13T02:03:03.683Z,54.68
2023-03-13T02:05:32.348Z,55.47
2023-03-13T02:08:11.931Z,58.29
2023-03-13T02:11:07.205Z,59.40
2023-03-13T02:13:35.254Z,64.28
2023-03-13T02:16:07.814Z,70.27
2023-03-13T02:18:38.344Z,67.70
2023-03-13T02:21:27.858Z,64.73
2023-03-13T02:24:14.536Z,57.76
2023-03-13T02:26:42.576Z,53.82
2023-03-13T02:29:18.416Z,55.48
2023-03-13T02:31:48.783Z,56.19
2023-03-13T02:34:28.784Z,57.53
2023-03-13T02:37:00.216Z,59.47
2023-03-13T02:39:30.745Z,59.55
2023-03-13T02:42:01.763Z,60.45
2023-03-13T02:44:34.057Z,67.43
2023-03-13T02:47:01.959Z,73.48
2023-03-13T02:49:30.494Z,67.00
2023-03-13T02:52:11.013Z,61.50
2023-03-13T02:54:57.060Z,55.85
2023-03-13T02:57:25.549Z,53.52
2023-03-13T03:00:04.254Z,56.16
2023-03-13T03:02:32.259Z,56.39
2023-03-13T03:05:01.118Z,58.78
2023-03-13T03:07:30.051Z,61.49
2023-03-13T03:10:03.723Z,66.45
2023-03-13T03:12:31.750Z,72.74
2023-03-13T03:15:01.045Z,68.95
2023-03-13T03:17:34.561Z,63.43
2023-03-13T03:20:05.548Z,57.47
2023-03-13T03:22:34.708Z,52.35
2023-03-13T03:25:06.376Z,54.48
2023-03-13T03:27:38.827Z,55.23
2023-03-13T03:30:08.052Z,56.15
2023-03-13T03:32:37.534Z,57.06
2023-03-13T03:35:06.146Z,58.20
2023-03-13T03:37:34.252Z,60.15
2023-03-13T03:40:02.366Z,63.68
2023-03-13T03:42:31.606Z,72.09
2023-03-13T03:44:59.426Z,70.85
2023-03-13T03:47:28.765Z,64.61
2023-03-13T03:49:57.845Z,60.88
2023-03-13T03:52:26.809Z,53.85
2023-03-13T03:54:54.511Z,52.97
2023-03-13T03:57:22.877Z,55.98
2023-03-13T03:59:50.644Z,57.98
2023-03-13T04:02:18.734Z,60.95
2023-03-13T04:04:49.124Z,66.42
2023-03-13T04:07:17.097Z,69.09
2023-03-13T04:09:45.909Z,63.14
2023-03-13T04:12:15.911Z,56.29
2023-03-13T04:14:45.581Z,53.45
2023-03-13T04:17:15.205Z,54.94
2023-03-13T04:19:43.185Z,58.63
2023-03-13T04:22:11.021Z,61.01
2023-03-13T04:24:41.535Z,65.66
2023-03-13T04:27:09.431Z,70.13
2023-03-13T04:29:40.554Z,66.10
2023-03-13T04:32:11.119Z,61.32
2023-03-13T04:34:39.059Z,53.94
2023-03-13T04:37:08.295Z,51.45
2023-03-13T04:39:36.825Z,53.66
2023-03-13T04:42:06.212Z,55.27
2023-03-13T04:44:33.947Z,56.74
2023-03-13T04:47:01.786Z,58.15
2023-03-13T04:49:33.005Z,59.60
2023-03-13T04:54:45.565Z,67.79
2023-03-13T04:57:13.460Z,66.85
2023-03-13T04:59:41.439Z,64.05
2023-03-13T05:02:12.960Z,59.89
2023-03-13T05:04:43.596Z,53.44
2023-03-13T05:07:12.606Z,53.94
2023-03-13T05:09:40.690Z,55.23
2023-03-13T05:12:09.073Z,57.62
2023-03-13T05:14:39.236Z,60.05
2023-03-13T05:17:07.235Z,61.92
2023-03-13T05:19:35.456Z,70.36
2023-03-13T05:22:03.074Z,69.16
2023-03-13T05:24:31.050Z,62.12
2023-03-13T05:27:03.689Z,54.98
2023-03-13T05:29:33.692Z,55.48
2023-03-13T05:32:01.358Z,56.17
2023-03-13T05:34:29.829Z,57.20
2023-03-13T05:37:00.243Z,58.70
2023-03-13T05:39:28.357Z,60.96
2023-03-13T05:41:57.812Z,64.08
2023-03-13T05:44:26.056Z,68.12
2023-03-13T05:46:53.899Z,66.90
2023-03-13T05:49:24.877Z,62.77
2023-03-13T05:51:57.507Z,55.95
2023-03-13T05:54:26.195Z,52.54
2023-03-13T05:56:53.841Z,54.08
2023-03-13T05:59:23.792Z,55.51
2023-03-13T06:01:56.348Z,57.14
2023-03-13T06:04:25.844Z,63.14
2023-03-13T06:06:53.664Z,65.63
2023-03-13T06:09:22.645Z,63.53
2023-03-13T06:11:50.377Z,58.41
2023-03-13T06:14:18.234Z,57.50
2023-03-13T06:16:47.217Z,62.18
2023-03-13T06:19:18.584Z,65.61
2023-03-13T06:21:47.119Z,65.86
2023-03-13T06:24:14.910Z,57.11
2023-03-13T06:26:43.268Z,55.15
2023-03-13T06:29:12.005Z,55.27
2023-03-13T06:31:40.942Z,56.54
2023-03-13T06:34:13.149Z,62.89
2023-03-13T06:36:42.310Z,66.91
2023-03-13T06:39:12.720Z,66.05
2023-03-13T06:41:41.101Z,62.69
2023-03-13T06:44:09.431Z,56.45
2023-03-13T06:46:40.398Z,58.57
2023-03-13T06:49:11.945Z,62.08
2023-03-13T06:51:39.758Z,64.10
2023-03-13T06:54:10.575Z,61.09
2023-03-13T06:56:39.118Z,58.79
2023-03-13T06:59:10.323Z,61.12
2023-03-13T07:01:39.596Z,64.18
2023-03-13T07:04:10.161Z,63.56
2023-03-13T07:06:39.801Z,59.48
2023-03-13T07:09:08.046Z,56.85
2023-03-13T07:11:36.829Z,60.54
2023-03-13T07:14:15.684Z,64.78
2023-03-13T07:16:46.832Z,64.39
2023-03-13T07:19:15.840Z,59.41
2023-03-13T07:21:44.799Z,56.81
2023-03-13T07:24:14.070Z,60.92
2023-03-13T07:27:02.042Z,63.70
2023-03-13T07:29:34.224Z,62.02
2023-03-13T07:32:04.028Z,59.44
2023-03-13T07:34:31.808Z,56.83
2023-03-13T07:37:02.196Z,61.33
2023-03-13T07:39:34.438Z,63.97
2023-03-13T07:42:02.376Z,62.99
2023-03-13T07:44:32.341Z,62.46
2023-03-13T07:47:02.782Z,61.34
2023-03-13T07:49:38.666Z,55.83
2023-03-13T07:52:07.147Z,53.51
2023-03-13T07:54:36.351Z,56.18
2023-03-13T07:57:04.760Z,59.80
2023-03-13T07:59:34.829Z,63.69
2023-03-13T08:02:14.073Z,64.41
2023-03-13T08:04:44.825Z,62.48
2023-03-13T08:07:14.424Z,60.58
2023-03-13T08:09:43.597Z,55.67
2023-03-13T08:12:14.136Z,53.77
2023-03-13T08:14:42.240Z,55.04
2023-03-13T08:17:11.048Z,60.51
2023-03-13T08:19:39.307Z,64.82
2023-03-13T08:22:08.422Z,66.05
2023-03-13T08:24:38.816Z,63.95
2023-03-13T08:27:07.407Z,61.66
2023-03-13T08:29:35.583Z,56.13
2023-03-13T08:32:06.889Z,52.45
2023-03-13T08:34:37.526Z,53.97
2023-03-13T08:37:06.777Z,54.75
2023-03-13T08:39:39.189Z,59.24
2023-03-13T08:42:11.218Z,65.56
2023-03-13T08:44:39.855Z,67.65
2023-03-13T08:47:11.432Z,64.35
2023-03-13T08:49:39.137Z,59.73
2023-03-13T08:52:09.305Z,54.78
2023-03-13T08:54:38.308Z,54.08
2023-03-13T08:57:06.285Z,57.36
2023-03-13T08:59:37.416Z,58.94
2023-03-13T09:02:06.312Z,64.22
2023-03-13T09:04:34.112Z,64.67
2023-03-13T09:07:02.108Z,61.30
2023-03-13T09:09:30.927Z,62.50
2023-03-13T09:12:00.616Z,60.74
2023-03-13T09:14:28.939Z,56.39
2023-03-13T09:16:59.926Z,53.47
2023-03-13T09:19:29.183Z,57.54
2023-03-13T09:21:57.330Z,58.71
2023-03-13T09:24:26.371Z,57.59
2023-03-13T09:27:01.487Z,58.70
2023-03-13T09:29:30.648Z,59.50
2023-03-13T09:31:59.481Z,63.66
2023-03-13T09:34:29.966Z,71.59
2023-03-13T09:36:59.645Z,69.27
2023-03-13T09:39:28.158Z,60.56
2023-03-13T09:42:16.358Z,52.80
2023-03-13T09:44:57.240Z,52.76
2023-03-13T09:48:04.443Z,56.86
2023-03-13T09:50:46.327Z,59.56
2023-03-13T09:53:32.435Z,62.25
2023-03-13T09:56:12.045Z,67.92
2023-03-13T09:58:52.509Z,64.27
2023-03-13T10:01:30.622Z,61.16
2023-03-13T10:04:41.911Z,53.78
2023-03-13T10:07:13.521Z,54.68
2023-03-13T10:09:50.378Z,59.06
2023-03-13T10:12:30.162Z,59.90
2023-03-13T10:15:27.850Z,64.36
2023-03-13T10:18:16.640Z,65.16
2023-03-13T10:20:59.035Z,62.68
2023-03-13T10:23:44.520Z,61.81
2023-03-13T10:26:40.888Z,55.35
2023-03-13T10:29:27.876Z,50.90
2023-03-13T10:32:07.195Z,54.64
2023-03-13T10:35:03.530Z,56.68
2023-03-13T10:37:45.091Z,57.84
2023-03-13T10:40:25.949Z,61.82
2023-03-13T10:43:13.028Z,71.51
2023-03-13T10:45:44.341Z,68.57
2023-03-13T10:48:20.513Z,61.52
2023-03-13T10:50:54.712Z,55.01
2023-03-13T10:53:34.897Z,51.83
2023-03-13T10:56:16.268Z,53.67
2023-03-13T10:58:52.201Z,54.16
2023-03-13T11:01:36.994Z,55.48
2023-03-13T11:04:41.112Z,57.75
2023-03-13T11:07:25.510Z,60.26
2023-03-13T11:10:18.738Z,60.66
2023-03-13T11:12:57.951Z,61.43
2023-03-13T11:15:57.731Z,68.17
2023-03-13T11:19:11.737Z,74.39
2023-03-13T11:21:57.162Z,61.83
2023-03-13T11:25:00.423Z,53.87
2023-03-13T11:28:07.612Z,51.87
2023-03-13T11:30:49.280Z,54.26
2023-03-13T11:34:08.413Z,57.73
2023-03-13T11:36:52.460Z,57.92
2023-03-13T11:39:51.714Z,60.01
2023-03-13T11:43:23.663Z,63.49
2023-03-13T11:46:25.628Z,71.06
2023-03-13T11:49:37.150Z,65.74
2023-03-13T11:52:18.615Z,53.80
2023-03-13T11:55:03.852Z,51.74
2023-03-13T11:57:53.920Z,54.13
2023-03-13T12:00:31.793Z,58.59
2023-03-13T12:03:16.691Z,60.78
2023-03-13T12:05:59.678Z,66.34
2023-03-13T12:09:16.859Z,66.64
2023-03-13T12:12:15.708Z,60.47
2023-03-13T12:15:21.506Z,53.60
2023-03-13T12:17:56.477Z,54.83
2023-03-13T12:20:47.963Z,56.72
2023-03-13T12:23:50.241Z,60.45
2023-03-13T12:26:45.939Z,67.51
2023-03-13T12:29:52.599Z,63.53
2023-03-13T12:32:48.915Z,59.57
2023-03-13T12:35:33.523Z,51.90
2023-03-13T12:38:27.269Z,51.12
2023-03-13T12:41:24.857Z,57.02
2023-03-13T12:44:08.306Z,58.23
2023-03-13T12:47:17.555Z,64.18
2023-03-13T12:50:25.805Z,66.79
2023-03-13T12:53:24.894Z,56.05
2023-03-13T12:56:58.684Z,54.60
2023-03-13T12:59:41.433Z,56.02
2023-03-13T13:02:28.531Z,63.45
2023-03-13T13:05:01.618Z,65.83
2023-03-13T13:07:40.880Z,63.19
2023-03-13T13:10:12.223Z,56.78
2023-03-13T13:12:45.085Z,58.49
2023-03-13T13:15:34.535Z,60.82
2023-03-13T13:18:23.372Z,60.68
2023-03-13T13:21:02.770Z,66.95
2023-03-13T13:23:47.049Z,70.29
2023-03-13T13:26:32.853Z,61.50
2023-03-13T13:29:22.270Z,54.89
2023-03-13T13:31:56.959Z,56.34
2023-03-13T13:34:54.845Z,60.89
2023-03-13T13:37:25.933Z,65.43
2023-03-13T13:40:22.605Z,63.80
2023-03-13T13:43:02.980Z,62.37
2023-03-13T13:45:37.398Z,56.35
2023-03-13T13:48:33.858Z,55.59
2023-03-13T13:51:19.182Z,57.84
2023-03-13T13:54:01.907Z,56.45
2023-03-13T13:56:38.801Z,63.63
2023-03-13T13:59:22.698Z,69.59
2023-03-13T14:02:17.425Z,64.84
2023-03-13T14:04:53.141Z,56.35
2023-03-13T14:07:54.646Z,56.69
2023-03-13T14:11:06.141Z,59.63
2023-03-13T14:13:37.497Z,66.70
2023-03-13T14:16:31.809Z,65.03
2023-03-13T14:18:59.822Z,61.04
2023-03-13T14:21:28.292Z,54.54
2023-03-13T14:23:57.058Z,53.36
2023-03-13T14:26:28.520Z,55.41
2023-03-13T14:29:08.104Z,59.93
2023-03-13T14:31:39.947Z,66.94
2023-03-13T14:34:14.591Z,66.94
2023-03-13T14:36:57.082Z,59.30
2023-03-13T14:39:30.798Z,55.32
2023-03-13T14:42:14.150Z,58.10
2023-03-13T14:44:49.217Z,63.22
2023-03-13T14:47:31.055Z,65.07
2023-03-13T14:50:07.297Z,59.50
2023-03-13T14:52:37.631Z,57.56
2023-03-13T14:55:29.929Z,59.89
2023-03-13T14:58:25.393Z,60.16
2023-03-13T15:00:58.217Z,65.19
2023-03-13T15:03:34.089Z,67.61
2023-03-13T15:06:10.794Z,62.34
2023-03-13T15:08:43.423Z,58.45
2023-03-13T15:11:34.960Z,53.03
2023-03-13T15:14:03.754Z,55.52
2023-03-13T15:16:31.644Z,58.67
2023-03-13T15:18:59.489Z,62.88
2023-03-13T15:21:33.965Z,66.75
2023-03-13T15:24:15.538Z,66.51
2023-03-13T15:26:43.810Z,60.72
2023-03-13T15:29:11.863Z,54.32
2023-03-13T15:31:40.294Z,55.46
2023-03-13T15:34:14.303Z,58.93
2023-03-13T15:36:43.959Z,60.80
2023-03-13T15:39:21.540Z,65.73
2023-03-13T15:41:49.766Z,67.33
2023-03-13T15:44:17.804Z,61.82
2023-03-13T15:46:46.940Z,58.28
2023-03-13T15:49:16.801Z,55.66
2023-03-13T15:51:44.552Z,58.77
2023-03-13T15:54:12.557Z,63.32
2023-03-13T15:56:40.796Z,64.43
2023-03-13T15:59:14.300Z,59.50
2023-03-13T16:01:45.660Z,58.12
2023-03-13T16:04:13.769Z,59.99
2023-03-13T16:06:41.638Z,62.42
2023-03-13T16:09:12.195Z,67.60
2023-03-13T16:11:39.980Z,64.26
2023-03-13T16:14:07.870Z,61.15
2023-03-13T16:16:37.817Z,56.22
2023-03-13T16:19:07.440Z,58.78
2023-03-13T16:21:36.249Z,63.29
2023-03-13T16:24:04.899Z,64.80
2023-03-13T16:26:32.872Z,62.53
2023-03-13T16:29:02.203Z,60.03
2023-03-13T16:31:32.903Z,59.23
2023-03-13T16:34:02.505Z,56.61
2023-03-13T16:36:32.836Z,60.69
2023-03-13T16:39:05.683Z,64.66
2023-03-13T16:41:33.926Z,64.53
2023-03-13T16:44:02.806Z,60.60
2023-03-13T16:46:37.865Z,56.14
2023-03-13T16:49:08.641Z,58.28
2023-03-13T16:51:36.659Z,63.36
2023-03-13T16:54:06.708Z,64.27
2023-03-13T16:56:39.526Z,61.19
2023-03-13T16:59:13.451Z,57.26
2023-03-13T17:01:42.394Z,57.13
2023-03-13T17:04:10.571Z,59.50
2023-03-13T17:06:42.908Z,65.18
2023-03-13T17:09:16.096Z,65.48
2023-03-13T17:11:45.107Z,58.99
2023-03-13T17:14:16.414Z,58.38
2023-03-13T17:16:49.632Z,61.01
2023-03-13T17:19:18.313Z,65.26
2023-03-13T17:21:46.466Z,65.91
2023-03-13T17:24:15.094Z,60.19
2023-03-13T17:26:42.856Z,54.55
2023-03-13T17:29:17.840Z,56.96
2023-03-13T17:31:47.076Z,60.75
2023-03-13T17:34:16.785Z,64.87
2023-03-13T17:36:47.760Z,63.25
2023-03-13T17:39:16.233Z,61.42
2023-03-13T17:41:44.194Z,56.80
2023-03-13T17:44:11.970Z,54.97
2023-03-13T17:46:47.926Z,56.67
2023-03-13T17:49:20.566Z,58.42
2023-03-13T17:51:51.587Z,62.60
2023-03-13T17:54:19.380Z,68.80
2023-03-13T17:56:48.637Z,65.38
2023-03-13T17:59:18.693Z,56.62
2023-03-13T18:01:46.586Z,56.13
2023-03-13T18:04:15.157Z,57.96
2023-03-13T18:06:50.843Z,63.18
2023-03-13T18:09:28.794Z,65.30
2023-03-13T18:11:58.906Z,59.88
2023-03-13T18:14:26.695Z,56.95
2023-03-13T18:16:58.027Z,57.62
2023-03-13T18:19:27.079Z,60.02
2023-03-13T18:21:58.048Z,65.70
2023-03-13T18:24:26.208Z,66.71
2023-03-13T18:26:53.932Z,58.76
2023-03-13T18:29:27.989Z,57.02
2023-03-13T18:31:59.962Z,58.76
2023-03-13T18:34:29.273Z,58.66
2023-03-13T18:37:03.856Z,64.85
2023-03-13T18:39:33.388Z,67.45
2023-03-13T18:42:02.057Z,63.32
2023-03-13T18:44:30.046Z,55.16
2023-03-13T18:47:00.163Z,53.26
2023-03-13T18:49:30.111Z,55.95
2023-03-13T18:51:58.593Z,59.20
2023-03-13T18:54:27.007Z,62.84
2023-03-13T18:56:57.182Z,67.64
2023-03-13T18:59:27.858Z,64.75
2023-03-13T19:01:56.458Z,57.27
2023-03-13T19:04:25.926Z,56.04
2023-03-13T19:06:54.028Z,57.30
2023-03-13T19:12:13.557Z,65.19
2023-03-13T19:14:44.044Z,61.71
2023-03-13T19:17:30.762Z,57.91
2023-03-13T19:19:58.561Z,56.26
2023-03-13T19:22:27.836Z,57.58
2023-03-13T19:24:56.151Z,58.56
2023-03-13T19:27:25.470Z,63.17
2023-03-13T19:29:53.507Z,69.48
2023-03-13T19:32:21.436Z,65.21
2023-03-13T19:34:49.427Z,58.83
2023-03-13T19:37:19.522Z,55.23
2023-03-13T19:39:47.517Z,57.51
2023-03-13T19:42:19.394Z,61.42
2023-03-13T19:44:47.510Z,65.03
2023-03-13T19:47:18.259Z,64.45
2023-03-13T19:49:49.952Z,57.77
2023-03-13T19:52:19.212Z,54.89
2023-03-13T19:54:48.282Z,59.36
2023-03-13T19:57:15.965Z,62.66
2023-03-13T19:59:45.074Z,64.58
2023-03-13T20:02:16.096Z,64.03
2023-03-13T20:04:45.917Z,57.52
2023-03-13T20:07:13.805Z,59.25
2023-03-13T20:09:42.061Z,64.02
2023-03-13T20:12:11.429Z,62.38
2023-03-13T20:14:39.530Z,59.05
2023-03-13T20:17:07.734Z,59.49
2023-03-13T20:19:44.144Z,62.09
2023-03-13T20:22:13.614Z,66.52
2023-03-13T20:24:45.296Z,65.50
2023-03-13T20:27:13.337Z,57.43
2023-03-13T20:29:42.443Z,55.17
2023-03-13T20:32:12.520Z,58.08
2023-03-13T20:34:40.680Z,60.64
2023-03-13T20:37:08.444Z,65.64
2023-03-13T20:39:36.302Z,64.61
2023-03-13T20:42:06.646Z,59.83
2023-03-13T20:44:34.772Z,56.72
2023-03-13T20:47:03.930Z,59.80
2023-03-13T20:49:31.694Z,61.37
2023-03-13T20:52:04.603Z,67.67
2023-03-13T20:54:32.783Z,65.94
2023-03-13T20:57:02.469Z,58.96
2023-03-13T20:59:30.365Z,54.61
2023-03-13T21:02:01.044Z,56.70
2023-03-13T21:04:29.224Z,61.18
2023-03-13T21:07:04.524Z,64.58
2023-03-13T21:09:34.393Z,62.40
2023-03-13T21:12:02.082Z,57.33
2023-03-13T21:14:33.888Z,57.04
2023-03-13T21:17:02.728Z,61.67
2023-03-13T21:19:31.155Z,64.99
2023-03-13T21:21:59.522Z,61.21
2023-03-13T21:24:27.800Z,55.82
2023-03-13T21:26:56.799Z,55.09
2023-03-13T21:29:26.969Z,59.51
2023-03-13T21:31:54.710Z,60.43
2023-03-13T21:34:23.225Z,63.82
2023-03-13T21:36:51.361Z,67.71
2023-03-13T21:39:19.513Z,62.99
2023-03-13T21:41:47.192Z,56.06
2023-03-13T21:44:19.856Z,53.54
2023-03-13T21:46:48.747Z,55.93
2023-03-13T21:49:16.868Z,57.17
2023-03-13T21:51:44.695Z,60.88
2023-03-13T21:54:13.549Z,66.73
2023-03-13T21:56:42.560Z,65.69
2023-03-13T21:59:10.466Z,59.92
2023-03-13T22:01:38.325Z,53.68
2023-03-13T22:04:06.160Z,52.77
2023-03-13T22:06:34.632Z,54.45
2023-03-13T22:12:45.730Z,58.50
2023-03-13T22:15:14.641Z,59.97
2023-03-13T22:17:43.367Z,59.90
2023-03-13T22:20:14.139Z,62.94
2023-03-13T22:22:42.140Z,69.78
2023-03-13T22:25:09.928Z,67.56
2023-03-13T22:27:39.294Z,61.32
2023-03-13T22:30:09.019Z,54.44
2023-03-13T22:32:37.631Z,50.75
2023-03-13T22:35:06.947Z,51.33
2023-03-13T22:37:35.702Z,53.78
2023-03-13T22:40:06.856Z,55.90
2023-03-13T22:42:36.068Z,56.53
2023-03-13T22:45:05.980Z,59.56
2023-03-13T22:47:34.048Z,67.74
2023-03-13T22:50:02.886Z,70.93
2023-03-13T22:52:31.949Z,62.25
2023-03-13T22:54:59.777Z,53.24
2023-03-13T22:57:29.514Z,50.79
2023-03-13T23:00:01.524Z,52.18
2023-03-13T23:02:29.562Z,54.40
2023-03-13T23:05:01.185Z,54.92
2023-03-13T23:07:30.455Z,56.11
2023-03-13T23:09:59.400Z,56.56
2023-03-13T23:12:30.885Z,57.75
2023-03-13T23:15:00.106Z,62.51
2023-03-13T23:17:32.246Z,66.68
2023-03-13T23:20:08.049Z,65.68
2023-03-13T23:22:38.879Z,62.46
2023-03-13T23:25:07.582Z,55.97
2023-03-13T23:27:35.622Z,53.47
2023-03-13T23:30:07.954Z,57.71
2023-03-13T23:32:43.137Z,61.93
2023-03-13T23:35:13.240Z,64.99
2023-03-13T23:37:42.534Z,61.52
2023-03-13T23:40:12.656Z,58.65
2023-03-13T23:42:40.427Z,56.34
2023-03-13T23:45:09.310Z,60.53
2023-03-13T23:47:37.687Z,64.04
2023-03-13T23:50:06.767Z,64.69
2023-03-13T23:52:36.179Z,63.71
2023-03-13T23:55:06.811Z,58.42
2023-03-13T23:57:37.790Z,54.67
